sensor_id;sensor_type;location;lat;lon;timestamp;pressure;altitude;pressure_sealevel;temperature;humidity
10897;BME280;5501;51.176;6.470;2023-02-28T00:00:31;57965.28;;;-140.81;100.00
10897;BME280;5501;51.176;6.470;2023-02-28T00:05:33;57965.28;;;-140.81;100.00
10897;BME280;5501;51.176;6.470;2023-02-28T00:10:35;57965.28;;;-140.81;100.00
10897;BME280;5501;51.176;6.470;2023-02-28T00:15:37;57965.28;;;-140.81;100.00
10897;BME280;5501;51.176;6.470;2023-02-28T00:20:39;57965.28;;;-140.81;100.00
10897;BME280;5501;51.176;6.470;2023-02-28T00:25:40;57965.28;;;-140.81;100.00
10897;BME280;5501;51.176;6.470;2023-02-28T00:30:42;57965.28;;;-140.81;100.00
10897;BME280;5501;51.176;6.470;2023-02-28T00:35:43;57965.28;;;-140.81;100.00
10897;BME280;5501;51.176;6.470;2023-02-28T00:40:47;57965.28;;;-140.81;100.00
10897;BME280;5501;51.176;6.470;2023-02-28T00:45:49;57965.28;;;-140.81;100.00
10897;BME280;5501;51.176;6.470;2023-02-28T00:50:50;57965.28;;;-140.81;100.00
10897;BME280;5501;51.176;6.470;2023-02-28T00:55:52;57965.28;;;-140.81;100.00
10897;BME280;5501;51.176;6.470;2023-02-28T01:00:53;57965.28;;;-140.81;100.00
10897;BME280;5501;51.176;6.470;2023-02-28T01:05:55;57965.28;;;-140.81;100.00
10897;BME280;5501;51.176;6.470;2023-02-28T01:10:57;57965.28;;;-140.81;100.00
10897;BME280;5501;51.176;6.470;2023-02-28T01:15:58;57965.28;;;-140.81;100.00
10897;BME280;5501;51.176;6.470;2023-02-28T01:21:04;57965.28;;;-140.81;100.00
10897;BME280;5501;51.176;6.470;2023-02-28T01:26:10;57965.28;;;-140.81;100.00
10897;BME280;5501;51.176;6.470;2023-02-28T01:31:14;57965.28;;;-140.81;100.00
10897;BME280;5501;51.176;6.470;2023-02-28T01:36:19;57965.28;;;-140.81;100.00
10897;BME280;5501;51.176;6.470;2023-02-28T01:41:24;57965.28;;;-140.81;100.00
10897;BME280;5501;51.176;6.470;2023-02-28T01:46:27;57965.28;;;-140.81;100.00
10897;BME280;5501;51.176;6.470;2023-02-28T01:51:33;57965.28;;;-140.81;100.00
10897;BME280;5501;51.176;6.470;2023-02-28T01:56:38;57965.28;;;-140.81;100.00
10897;BME280;5501;51.176;6.470;2023-02-28T02:01:40;57965.28;;;-140.81;100.00
10897;BME280;5501;51.176;6.470;2023-02-28T02:06:44;57965.28;;;-140.81;100.00
10897;BME280;5501;51.176;6.470;2023-02-28T02:11:47;57965.28;;;-140.81;100.00
10897;BME280;5501;51.176;6.470;2023-02-28T02:16:53;57965.28;;;-140.81;100.00
10897;BME280;5501;51.176;6.470;2023-02-28T02:27:22;57965.28;;;-140.81;100.00
10897;BME280;5501;51.176;6.470;2023-02-28T02:32:36;57965.28;;;-140.81;100.00
10897;BME280;5501;51.176;6.470;2023-02-28T02:43:25;57965.28;;;-140.81;100.00
10897;BME280;5501;51.176;6.470;2023-02-28T02:48:33;57965.28;;;-140.81;100.00
10897;BME280;5501;51.176;6.470;2023-02-28T02:53:40;57965.28;;;-140.81;100.00
10897;BME280;5501;51.176;6.470;2023-02-28T02:58:43;57965.28;;;-140.81;100.00
10897;BME280;5501;51.176;6.470;2023-02-28T03:03:46;57965.28;;;-140.81;100.00
10897;BME280;5501;51.176;6.470;2023-02-28T03:08:48;57965.28;;;-140.81;100.00
10897;BME280;5501;51.176;6.470;2023-02-28T03:30:23;57965.28;;;-140.81;100.00
10897;BME280;5501;51.176;6.470;2023-02-28T03:35:30;57965.28;;;-140.81;100.00
10897;BME280;5501;51.176;6.470;2023-02-28T03:40:35;57965.28;;;-140.81;100.00
10897;BME280;5501;51.176;6.470;2023-02-28T03:45:39;57965.28;;;-140.81;100.00
10897;BME280;5501;51.176;6.470;2023-02-28T03:50:45;57965.28;;;-140.81;100.00
10897;BME280;5501;51.176;6.470;2023-02-28T03:55:50;57965.28;;;-140.81;100.00
10897;BME280;5501;51.176;6.470;2023-02-28T04:01:03;57965.28;;;-140.81;100.00
10897;BME280;5501;51.176;6.470;2023-02-28T04:06:15;57965.28;;;-140.81;100.00
10897;BME280;5501;51.176;6.470;2023-02-28T04:11:20;57965.28;;;-140.81;100.00
10897;BME280;5501;51.176;6.470;2023-02-28T04:16:22;57965.28;;;-140.81;100.00
10897;BME280;5501;51.176;6.470;2023-02-28T04:21:38;57965.28;;;-140.81;100.00
10897;BME280;5501;51.176;6.470;2023-02-28T04:26:45;57965.28;;;-140.81;100.00
10897;BME280;5501;51.176;6.470;2023-02-28T04:31:47;57965.28;;;-140.81;100.00
10897;BME280;5501;51.176;6.470;2023-02-28T04:36:49;57965.28;;;-140.81;100.00
10897;BME280;5501;51.176;6.470;2023-02-28T04:42:16;57965.28;;;-140.81;100.00
10897;BME280;5501;51.176;6.470;2023-02-28T04:47:17;57965.28;;;-140.81;100.00
10897;BME280;5501;51.176;6.470;2023-02-28T04:52:19;57965.28;;;-140.81;100.00
10897;BME280;5501;51.176;6.470;2023-02-28T04:57:22;57965.28;;;-140.81;100.00
10897;BME280;5501;51.176;6.470;2023-02-28T05:02:23;57965.28;;;-140.81;100.00
10897;BME280;5501;51.176;6.470;2023-02-28T05:07:25;57965.28;;;-140.81;100.00
10897;BME280;5501;51.176;6.470;2023-02-28T05:12:27;57965.28;;;-140.81;100.00
10897;BME280;5501;51.176;6.470;2023-02-28T05:17:28;57965.28;;;-140.81;100.00
10897;BME280;5501;51.176;6.470;2023-02-28T05:22:30;57965.28;;;-140.81;100.00
10897;BME280;5501;51.176;6.470;2023-02-28T05:27:31;57965.28;;;-140.81;100.00
10897;BME280;5501;51.176;6.470;2023-02-28T05:32:33;57965.28;;;-140.81;100.00
10897;BME280;5501;51.176;6.470;2023-02-28T05:37:34;57965.28;;;-140.81;100.00
10897;BME280;5501;51.176;6.470;2023-02-28T05:42:36;57965.28;;;-140.81;100.00
10897;BME280;5501;51.176;6.470;2023-02-28T05:47:38;57965.28;;;-140.81;100.00
10897;BME280;5501;51.176;6.470;2023-02-28T05:52:39;57965.28;;;-140.81;100.00
10897;BME280;5501;51.176;6.470;2023-02-28T05:57:41;57965.28;;;-140.81;100.00
10897;BME280;5501;51.176;6.470;2023-02-28T06:02:43;57965.28;;;-140.81;100.00
10897;BME280;5501;51.176;6.470;2023-02-28T06:07:45;57965.28;;;-140.81;100.00
10897;BME280;5501;51.176;6.470;2023-02-28T06:12:46;57965.28;;;-140.81;100.00
10897;BME280;5501;51.176;6.470;2023-02-28T06:17:48;57965.28;;;-140.81;100.00
10897;BME280;5501;51.176;6.470;2023-02-28T06:22:49;57965.28;;;-140.81;100.00
10897;BME280;5501;51.176;6.470;2023-02-28T06:27:55;57965.28;;;-140.81;100.00
10897;BME280;5501;51.176;6.470;2023-02-28T06:32:57;57965.28;;;-140.81;100.00
10897;BME280;5501;51.176;6.470;2023-02-28T06:37:58;57965.28;;;-140.81;100.00
10897;BME280;5501;51.176;6.470;2023-02-28T06:43:00;57965.28;;;-140.81;100.00
10897;BME280;5501;51.176;6.470;2023-02-28T06:48:01;57965.28;;;-140.81;100.00
10897;BME280;5501;51.176;6.470;2023-02-28T06:53:03;57965.28;;;-140.81;100.00
10897;BME280;5501;51.176;6.470;2023-02-28T06:58:04;57965.28;;;-140.81;100.00
10897;BME280;5501;51.176;6.470;2023-02-28T07:03:15;57965.28;;;-140.81;100.00
10897;BME280;5501;51.176;6.470;2023-02-28T07:08:18;57965.28;;;-140.81;100.00
10897;BME280;5501;51.176;6.470;2023-02-28T07:13:20;57965.28;;;-140.81;100.00
10897;BME280;5501;51.176;6.470;2023-02-28T07:18:23;57965.28;;;-140.81;100.00
10897;BME280;5501;51.176;6.470;2023-02-28T07:23:25;57965.28;;;-140.81;100.00
10897;BME280;5501;51.176;6.470;2023-02-28T07:28:27;57965.28;;;-140.81;100.00
10897;BME280;5501;51.176;6.470;2023-02-28T07:33:28;57965.28;;;-140.81;100.00
10897;BME280;5501;51.176;6.470;2023-02-28T07:38:30;57965.28;;;-140.81;100.00
10897;BME280;5501;51.176;6.470;2023-02-28T07:43:32;57965.28;;;-140.81;100.00
10897;BME280;5501;51.176;6.470;2023-02-28T07:48:34;57965.28;;;-140.81;100.00
10897;BME280;5501;51.176;6.470;2023-02-28T07:53:36;57965.28;;;-140.81;100.00
10897;BME280;5501;51.176;6.470;2023-02-28T07:58:37;57965.28;;;-140.81;100.00
10897;BME280;5501;51.176;6.470;2023-02-28T08:03:39;57965.28;;;-140.81;100.00
10897;BME280;5501;51.176;6.470;2023-02-28T08:08:42;57965.28;;;-140.81;100.00
10897;BME280;5501;51.176;6.470;2023-02-28T08:13:44;57965.28;;;-140.81;100.00
10897;BME280;5501;51.176;6.470;2023-02-28T08:18:46;57965.28;;;-140.81;100.00
10897;BME280;5501;51.176;6.470;2023-02-28T08:23:48;57965.28;;;-140.81;100.00
10897;BME280;5501;51.176;6.470;2023-02-28T08:28:50;57965.28;;;-140.81;100.00
10897;BME280;5501;51.176;6.470;2023-02-28T08:33:51;57965.28;;;-140.81;100.00
10897;BME280;5501;51.176;6.470;2023-02-28T08:38:54;57965.28;;;-140.81;100.00
10897;BME280;5501;51.176;6.470;2023-02-28T08:43:56;57965.28;;;-140.81;100.00
10897;BME280;5501;51.176;6.470;2023-02-28T08:48:57;57965.28;;;-140.81;100.00
10897;BME280;5501;51.176;6.470;2023-02-28T08:54:01;57965.28;;;-140.81;100.00
10897;BME280;5501;51.176;6.470;2023-02-28T08:59:02;57965.28;;;-140.81;100.00
10897;BME280;5501;51.176;6.470;2023-02-28T09:04:04;57965.28;;;-140.81;100.00
10897;BME280;5501;51.176;6.470;2023-02-28T09:09:08;57965.28;;;-140.81;100.00
10897;BME280;5501;51.176;6.470;2023-02-28T09:14:10;57965.28;;;-140.81;100.00
10897;BME280;5501;51.176;6.470;2023-02-28T09:19:12;57965.28;;;-140.81;100.00
10897;BME280;5501;51.176;6.470;2023-02-28T09:24:14;57965.28;;;-140.81;44.62
10897;BME280;5501;51.176;6.470;2023-02-28T09:29:16;57965.28;;;-140.81;100.00
10897;BME280;5501;51.176;6.470;2023-02-28T09:34:18;57965.28;;;-140.81;nan
10897;BME280;5501;51.176;6.470;2023-02-28T09:39:22;57965.28;;;-140.81;100.00
10897;BME280;5501;51.176;6.470;2023-02-28T09:44:42;112849.09;;;-140.81;56.03
10897;BME280;5501;51.176;6.470;2023-02-28T09:49:47;78814.09;;;-140.81;56.03
10897;BME280;5501;51.176;6.470;2023-02-28T09:54:49;102330.22;;;4.99;56.03
10897;BME280;5501;51.176;6.470;2023-02-28T10:00:05;102330.22;;;4.99;56.03
10897;BME280;5501;51.176;6.470;2023-02-28T10:05:20;102495.41;;;4.28;44.00
10897;BME280;5501;51.176;6.470;2023-02-28T10:10:29;102510.22;;;4.57;43.87
10897;BME280;5501;51.176;6.470;2023-02-28T10:15:33;102502.41;;;4.60;43.69
10897;BME280;5501;51.176;6.470;2023-02-28T10:20:39;102510.91;;;4.84;42.91
10897;BME280;5501;51.176;6.470;2023-02-28T10:25:45;102503.69;;;4.77;41.86
10897;BME280;5501;51.176;6.470;2023-02-28T10:30:52;102503.69;;;4.77;41.86
10897;BME280;5501;51.176;6.470;2023-02-28T10:35:54;102490.63;;;4.81;42.97
10897;BME280;5501;51.176;6.470;2023-02-28T10:41:07;102492.31;;;5.15;42.58
10897;BME280;5501;51.176;6.470;2023-02-28T10:51:12;102483.72;;;5.25;41.97
10897;BME280;5501;51.176;6.470;2023-02-28T10:56:17;102480.22;;;5.26;42.68
10897;BME280;5501;51.176;6.470;2023-02-28T11:06:42;102471.44;;;5.25;41.91
10897;BME280;5501;51.176;6.470;2023-02-28T11:11:45;102462.81;;;5.34;42.27
10897;BME280;5501;51.176;6.470;2023-02-28T11:16:49;102475.03;;;5.29;41.93
10897;BME280;5501;51.176;6.470;2023-02-28T11:21:56;102473.84;;;5.16;41.96
10897;BME280;5501;51.176;6.470;2023-02-28T11:26:58;102462.66;;;5.26;42.70
10897;BME280;5501;51.176;6.470;2023-02-28T11:37:16;102460.97;;;5.30;42.35
10897;BME280;5501;51.176;6.470;2023-02-28T11:47:44;102466.44;;;5.37;43.78
10897;BME280;5501;51.176;6.470;2023-02-28T11:52:53;102457.56;;;4.95;43.50
10897;BME280;5501;51.176;6.470;2023-02-28T12:03:56;102470.28;;;4.76;45.24
10897;BME280;5501;51.176;6.470;2023-02-28T12:14:38;102459.13;;;4.87;45.35
10897;BME280;5501;51.176;6.470;2023-02-28T12:25:41;102452.41;;;5.00;43.76
10897;BME280;5501;51.176;6.470;2023-02-28T12:31:03;102444.50;;;5.00;42.60
10897;BME280;5501;51.176;6.470;2023-02-28T12:36:09;102444.34;;;4.94;44.46
10897;BME280;5501;51.176;6.470;2023-02-28T12:41:14;102430.88;;;4.80;44.89
10897;BME280;5501;51.176;6.470;2023-02-28T12:46:22;102423.50;;;5.04;45.58
10897;BME280;5501;51.176;6.470;2023-02-28T12:51:26;102412.84;;;5.00;44.14
10897;BME280;5501;51.176;6.470;2023-02-28T12:56:42;102403.00;;;5.33;43.80
10897;BME280;5501;51.176;6.470;2023-02-28T13:12:14;102382.47;;;5.62;43.10
10897;BME280;5501;51.176;6.470;2023-02-28T13:17:21;102380.78;;;5.65;42.87
10897;BME280;5501;51.176;6.470;2023-02-28T13:27:38;102379.19;;;5.75;42.64
10897;BME280;5501;51.176;6.470;2023-02-28T13:32:41;102364.91;;;5.63;42.64
10897;BME280;5501;51.176;6.470;2023-02-28T13:37:44;102368.53;;;5.70;42.80
10897;BME280;5501;51.176;6.470;2023-02-28T13:47:56;102357.94;;;5.67;42.93
10897;BME280;5501;51.176;6.470;2023-02-28T14:08:59;102345.50;;;6.08;42.30
10897;BME280;5501;51.176;6.470;2023-02-28T14:14:03;102342.97;;;6.15;42.31
10897;BME280;5501;51.176;6.470;2023-02-28T14:40:19;102333.69;;;6.40;42.36
10897;BME280;5501;51.176;6.470;2023-02-28T14:45:22;102327.34;;;6.30;42.16
10897;BME280;5501;51.176;6.470;2023-02-28T14:50:29;102332.81;;;6.42;42.20
10897;BME280;5501;51.176;6.470;2023-02-28T14:55:34;102329.06;;;6.28;42.39
10897;BME280;5501;51.176;6.470;2023-02-28T15:00:47;102330.88;;;6.29;42.67
10897;BME280;5501;51.176;6.470;2023-02-28T15:05:57;102320.13;;;6.20;42.97
10897;BME280;5501;51.176;6.470;2023-02-28T15:11:21;102320.91;;;6.12;43.64
10897;BME280;5501;51.176;6.470;2023-02-28T15:16:37;102309.81;;;6.35;44.38
10897;BME280;5501;51.176;6.470;2023-02-28T15:21:44;102307.38;;;6.49;42.38
10897;BME280;5501;51.176;6.470;2023-02-28T15:26:52;102318.72;;;6.42;43.03
10897;BME280;5501;51.176;6.470;2023-02-28T15:32:00;102318.66;;;6.37;42.94
10897;BME280;5501;51.176;6.470;2023-02-28T15:37:23;102315.03;;;6.32;43.06
10897;BME280;5501;51.176;6.470;2023-02-28T15:42:29;102308.72;;;6.20;44.16
10897;BME280;5501;51.176;6.470;2023-02-28T15:47:32;102317.16;;;5.99;44.40
10897;BME280;5501;51.176;6.470;2023-02-28T15:52:44;102301.69;;;5.71;45.13
10897;BME280;5501;51.176;6.470;2023-02-28T15:57:49;102303.69;;;5.81;45.37
10897;BME280;5501;51.176;6.470;2023-02-28T16:02:51;102301.75;;;5.74;45.57
10897;BME280;5501;51.176;6.470;2023-02-28T16:07:58;102315.59;;;5.61;45.66
10897;BME280;5501;51.176;6.470;2023-02-28T16:13:02;102321.94;;;5.71;45.73
10897;BME280;5501;51.176;6.470;2023-02-28T16:18:03;102313.78;;;5.57;46.74
10897;BME280;5501;51.176;6.470;2023-02-28T16:23:05;102316.31;;;5.52;47.87
10897;BME280;5501;51.176;6.470;2023-02-28T16:28:18;102319.28;;;5.69;47.95
10897;BME280;5501;51.176;6.470;2023-02-28T16:33:20;102315.28;;;5.43;48.36
10897;BME280;5501;51.176;6.470;2023-02-28T16:38:22;102322.19;;;5.38;47.85
10897;BME280;5501;51.176;6.470;2023-02-28T16:43:26;102327.22;;;5.23;49.32
10897;BME280;5501;51.176;6.470;2023-02-28T16:48:28;102335.97;;;5.22;49.67
10897;BME280;5501;51.176;6.470;2023-02-28T16:53:32;102345.19;;;4.99;50.77
10897;BME280;5501;51.176;6.470;2023-02-28T16:58:33;102344.88;;;4.85;50.93
10897;BME280;5501;51.176;6.470;2023-02-28T17:03:37;102351.09;;;4.89;51.46
10897;BME280;5501;51.176;6.470;2023-02-28T17:08:38;102353.78;;;4.90;51.67
10897;BME280;5501;51.176;6.470;2023-02-28T17:13:40;102364.13;;;4.81;51.71
10897;BME280;5501;51.176;6.470;2023-02-28T17:18:41;102364.13;;;4.81;51.71
10897;BME280;5501;51.176;6.470;2023-02-28T17:23:43;102371.53;;;4.59;52.14
10897;BME280;5501;51.176;6.470;2023-02-28T17:28:46;78901.84;;;-140.81;52.14
10897;BME280;5501;51.176;6.470;2023-02-28T17:33:48;102380.00;;;4.46;53.15
10897;BME280;5501;51.176;6.470;2023-02-28T17:38:49;102380.00;;;4.46;53.15
10897;BME280;5501;51.176;6.470;2023-02-28T17:43:52;102394.09;;;4.48;53.13
10897;BME280;5501;51.176;6.470;2023-02-28T17:48:53;102395.56;;;4.37;53.27
10897;BME280;5501;51.176;6.470;2023-02-28T17:53:55;102395.56;;;4.37;53.27
10897;BME280;5501;51.176;6.470;2023-02-28T17:58:58;102395.56;;;4.37;53.27
10897;BME280;5501;51.176;6.470;2023-02-28T18:04:00;102395.56;;;4.37;53.27
10897;BME280;5501;51.176;6.470;2023-02-28T18:09:01;102395.56;;;4.37;53.27
10897;BME280;5501;51.176;6.470;2023-02-28T18:14:04;102395.56;;;4.37;53.27
10897;BME280;5501;51.176;6.470;2023-02-28T18:19:06;102395.56;;;4.37;53.27
10897;BME280;5501;51.176;6.470;2023-02-28T18:24:07;57965.28;;;-140.81;100.00
10897;BME280;5501;51.176;6.470;2023-02-28T18:34:16;57965.28;;;-140.81;44.71
10897;BME280;5501;51.176;6.470;2023-02-28T18:39:18;57965.28;;;-140.81;100.00
10897;BME280;5501;51.176;6.470;2023-02-28T18:44:19;102399.44;;;4.15;56.13
10897;BME280;5501;51.176;6.470;2023-02-28T18:49:21;57965.28;;;-140.81;100.00
10897;BME280;5501;51.176;6.470;2023-02-28T18:54:23;57965.28;;;-140.81;nan
10897;BME280;5501;51.176;6.470;2023-02-28T18:59:25;57965.28;;;-140.81;44.71
10897;BME280;5501;51.176;6.470;2023-02-28T19:14:29;57965.28;;;-140.81;100.00
10897;BME280;5501;51.176;6.470;2023-02-28T19:19:30;57965.28;;;-140.81;44.71
10897;BME280;5501;51.176;6.470;2023-02-28T19:24:32;57965.28;;;-140.81;100.00
10897;BME280;5501;51.176;6.470;2023-02-28T19:29:34;57965.28;;;-140.81;100.00
10897;BME280;5501;51.176;6.470;2023-02-28T19:39:36;57965.28;;;-140.81;100.00
10897;BME280;5501;51.176;6.470;2023-02-28T19:44:42;57965.28;;;-140.81;100.00
10897;BME280;5501;51.176;6.470;2023-02-28T19:49:45;57965.28;;;-140.81;nan
10897;BME280;5501;51.176;6.470;2023-02-28T19:54:47;57965.28;;;-140.81;100.00
10897;BME280;5501;51.176;6.470;2023-02-28T19:59:48;57965.28;;;-140.81;100.00
10897;BME280;5501;51.176;6.470;2023-02-28T20:04:52;57965.28;;;-140.81;100.00
10897;BME280;5501;51.176;6.470;2023-02-28T20:09:55;57965.28;;;-140.81;100.00
10897;BME280;5501;51.176;6.470;2023-02-28T20:14:56;57965.28;;;-140.81;100.00
10897;BME280;5501;51.176;6.470;2023-02-28T20:20:00;57965.28;;;-140.81;100.00
10897;BME280;5501;51.176;6.470;2023-02-28T20:25:02;57965.28;;;-140.81;100.00
10897;BME280;5501;51.176;6.470;2023-02-28T20:30:04;57965.28;;;-140.81;100.00
10897;BME280;5501;51.176;6.470;2023-02-28T20:35:06;57965.28;;;-140.81;100.00
10897;BME280;5501;51.176;6.470;2023-02-28T20:40:09;57965.28;;;-140.81;100.00
10897;BME280;5501;51.176;6.470;2023-02-28T20:45:11;57965.28;;;-140.81;100.00
10897;BME280;5501;51.176;6.470;2023-02-28T20:50:12;57965.28;;;-140.81;100.00
10897;BME280;5501;51.176;6.470;2023-02-28T20:55:14;57965.28;;;-140.81;100.00
10897;BME280;5501;51.176;6.470;2023-02-28T21:00:15;57965.28;;;-140.81;100.00
10897;BME280;5501;51.176;6.470;2023-02-28T21:05:19;57965.28;;;-140.81;100.00
10897;BME280;5501;51.176;6.470;2023-02-28T21:10:21;57965.28;;;-140.81;100.00
10897;BME280;5501;51.176;6.470;2023-02-28T21:15:23;57965.28;;;-140.81;100.00
10897;BME280;5501;51.176;6.470;2023-02-28T21:20:25;57965.28;;;-140.81;100.00
10897;BME280;5501;51.176;6.470;2023-02-28T21:25:26;57965.28;;;-140.81;100.00
10897;BME280;5501;51.176;6.470;2023-02-28T21:30:28;57965.28;;;-140.81;100.00
10897;BME280;5501;51.176;6.470;2023-02-28T21:35:30;57965.28;;;-140.81;100.00
10897;BME280;5501;51.176;6.470;2023-02-28T21:40:32;57965.28;;;-140.81;100.00
10897;BME280;5501;51.176;6.470;2023-02-28T21:45:33;57965.28;;;-140.81;100.00
10897;BME280;5501;51.176;6.470;2023-02-28T21:50:35;57965.28;;;-140.81;100.00
10897;BME280;5501;51.176;6.470;2023-02-28T21:55:36;57965.28;;;-140.81;100.00
10897;BME280;5501;51.176;6.470;2023-02-28T22:00:38;57965.28;;;-140.81;100.00
10897;BME280;5501;51.176;6.470;2023-02-28T22:05:41;57965.28;;;-140.81;100.00
10897;BME280;5501;51.176;6.470;2023-02-28T22:10:42;57965.28;;;-140.81;100.00
10897;BME280;5501;51.176;6.470;2023-02-28T22:15:44;57965.28;;;-140.81;100.00
10897;BME280;5501;51.176;6.470;2023-02-28T22:20:53;57965.28;;;-140.81;100.00
10897;BME280;5501;51.176;6.470;2023-02-28T22:25:55;57965.28;;;-140.81;100.00
10897;BME280;5501;51.176;6.470;2023-02-28T22:30:57;57965.28;;;-140.81;100.00
10897;BME280;5501;51.176;6.470;2023-02-28T22:36:04;57965.28;;;-140.81;100.00
10897;BME280;5501;51.176;6.470;2023-02-28T22:41:06;57965.28;;;-140.81;100.00
10897;BME280;5501;51.176;6.470;2023-02-28T22:46:10;57965.28;;;-140.81;100.00
10897;BME280;5501;51.176;6.470;2023-02-28T22:51:15;57965.28;;;-140.81;100.00
10897;BME280;5501;51.176;6.470;2023-02-28T22:56:18;57965.28;;;-140.81;100.00
10897;BME280;5501;51.176;6.470;2023-02-28T23:01:23;57965.28;;;-140.81;100.00
10897;BME280;5501;51.176;6.470;2023-02-28T23:06:31;57965.28;;;-140.81;100.00
10897;BME280;5501;51.176;6.470;2023-02-28T23:11:38;57965.28;;;-140.81;100.00
10897;BME280;5501;51.176;6.470;2023-02-28T23:16:41;57965.28;;;-140.81;100.00
10897;BME280;5501;51.176;6.470;2023-02-28T23:21:44;57965.28;;;-140.81;100.00
10897;BME280;5501;51.176;6.470;2023-02-28T23:26:48;57965.28;;;-140.81;100.00
10897;BME280;5501;51.176;6.470;2023-02-28T23:31:50;57965.28;;;-140.81;100.00
10897;BME280;5501;51.176;6.470;2023-02-28T23:36:53;57965.28;;;-140.81;100.00
10897;BME280;5501;51.176;6.470;2023-02-28T23:41:55;57965.28;;;-140.81;100.00
10897;BME280;5501;51.176;6.470;2023-02-28T23:46:57;57965.28;;;-140.81;100.00
10897;BME280;5501;51.176;6.470;2023-02-28T23:51:59;57965.28;;;-140.81;100.00
10897;BME280;5501;51.176;6.470;2023-02-28T23:57:01;57965.28;;;-140.81;100.00
